Time;durP1;ratioP1;P1;durP2;ratioP2;P2;SDS_P1;SDS_P2;PMS_P1;PMS_P2;Temp;Humidity;BMP_temperature;BMP_pressure;BME280_temperature;BME280_humidity;BME280_pressure;Samples;Min_cycle;Max_cycle;Signal;HPM_P1;HPM_P2
2023/07/29 07:01:24;;;;;;;0.10;0.10;;;20.90;99.90;23.10;100543.00;;;;6223604;22;2057830;-65
2023/07/29 07:03:54;;;;;;;0.20;0.20;;;20.50;99.90;24.50;100569.00;;;;6281888;22;20191;-65
2023/07/29 07:06:24;;;;;;;0.10;0.10;;;20.90;99.90;23.60;100557.00;;;;6308761;22;20153;-65
2023/07/29 07:08:57;;;;;;;0.22;0.22;;;20.80;99.90;22.80;100542.00;;;;6281783;22;20160;-66
2023/07/29 07:11:46;;;;;;;0.10;0.10;;;20.40;99.90;23.00;100554.00;;;;6282044;22;20137;-65
2023/07/29 07:14:12;;;;;;;0.20;0.20;;;20.20;99.90;22.70;100554.00;;;;6281653;22;20175;-65
2023/07/29 07:16:39;;;;;;;0.10;0.10;;;20.10;99.90;25.00;100567.00;;;;6255082;22;20153;-65
2023/07/29 07:19:06;;;;;;;0.10;0.10;;;20.90;99.90;23.30;100558.00;;;;6280470;22;20594;-66
2023/07/29 07:21:34;;;;;;;0.10;0.10;;;20.70;99.90;23.80;100554.00;;;;6256173;22;20263;-65
2023/07/29 07:24:00;;;;;;;0.20;0.20;;;20.60;99.90;23.30;100553.00;;;;6308812;22;20133;-65
2023/07/29 07:26:26;;;;;;;0.10;0.10;;;20.50;99.90;23.20;100550.00;;;;6282108;22;20160;-65
2023/07/29 07:28:52;;;;;;;0.10;0.10;;;20.60;99.90;25.20;100556.00;;;;6256483;22;20565;-66
2023/07/29 07:31:18;;;;;;;0.10;0.10;;;21.30;99.90;26.80;100577.00;;;;6281534;22;20156;-66
2023/07/29 07:33:44;;;;;;;0.10;0.10;;;22.80;99.90;26.60;100554.00;;;;6281779;22;20149;-66
2023/07/29 07:36:13;;;;;;;0.10;0.10;;;23.20;99.90;27.40;100599.00;;;;6308835;22;20556;-66
2023/07/29 07:38:42;;;;;;;0.10;0.10;;;24.10;99.90;27.20;100611.00;;;;6309146;22;20137;-66
2023/07/29 07:41:08;;;;;;;0.10;0.10;;;24.40;99.90;27.70;100598.00;;;;6308851;22;20641;-65
2023/07/29 07:43:33;;;;;;;0.10;0.10;;;24.30;99.90;28.20;100630.00;;;;6281884;22;20172;-65
2023/07/29 07:46:04;;;;;;;0.63;0.45;;;24.70;99.90;26.80;100635.00;;;;6308597;22;20194;-66
2023/07/29 07:48:32;;;;;;;0.10;0.10;;;24.40;99.90;28.60;100623.00;;;;6255356;22;20167;-66
2023/07/29 07:51:01;;;;;;;0.10;0.10;;;24.70;99.90;29.60;100643.00;;;;6308516;22;20475;-66
2023/07/29 07:53:27;;;;;;;0.10;0.10;;;25.20;99.90;28.60;100674.00;;;;6282472;22;20460;-66
2023/07/29 07:56:11;;;;;;;0.10;0.10;;;25.80;99.90;25.90;100612.00;;;;6281566;22;20140;-65
2023/07/29 07:58:44;;;;;;;0.10;0.10;;;23.90;99.90;27.80;100601.00;;;;6256174;22;20157;-65
2023/07/29 08:01:29;;;;;;;0.10;0.10;;;23.90;99.90;27.40;100627.00;;;;6307427;22;20164;-65
2023/07/29 08:03:57;;;;;;;0.28;0.28;;;24.40;99.90;27.00;100628.00;;;;6280737;22;20168;-65
2023/07/29 08:09:15;;;;;;;0.10;0.10;;;23.80;99.90;28.50;100621.00;;;;6308246;22;20876;-65
2023/07/29 08:11:58;;;;;;;0.17;0.17;;;24.50;99.90;27.70;100661.00;;;;6308105;22;20139;-65
2023/07/29 08:15:02;;;;;;;0.10;0.10;;;25.00;99.90;27.30;100599.00;;;;6308581;22;20140;-65
2023/07/29 08:17:53;;;;;;;0.20;0.20;;;24.20;99.90;28.00;100630.00;;;;6280855;22;20152;-65
2023/07/29 08:20:55;;;;;;;0.10;0.10;;;24.60;99.90;26.70;100653.00;;;;6308477;22;20156;-65
2023/07/29 08:23:21;;;;;;;0.30;0.30;;;24.90;99.90;24.90;100573.00;;;;6281169;22;20489;-65
2023/07/29 08:26:05;;;;;;;0.45;0.45;;;23.50;99.90;25.70;100555.00;;;;6308332;22;20190;-65
2023/07/29 08:28:37;;;;;;;0.10;0.10;;;23.20;99.90;27.50;100582.00;;;;6307961;22;20136;-65
2023/07/29 08:31:03;;;;;;;0.10;0.10;;;24.20;99.90;28.70;100639.00;;;;6280492;22;20167;-65
2023/07/29 08:33:33;;;;;;;0.10;0.10;;;25.00;99.90;26.20;100603.00;;;;6280955;22;20198;-65
2023/07/29 08:35:59;;;;;;;0.17;0.17;;;24.10;99.90;27.30;100587.00;;;;6281157;22;20164;-64
2023/07/29 08:38:30;;;;;;;0.10;0.10;;;24.10;99.90;29.40;100644.00;;;;6281244;22;20144;-65
2023/07/29 08:41:39;;;;;;;0.10;0.10;;;25.70;99.90;33.30;100656.00;;;;6308217;22;20223;-65
2023/07/29 08:44:27;;;;;;;0.10;0.10;;;27.60;99.90;29.10;100701.00;;;;6218457;23;20145;-66
2023/07/29 08:46:55;;;;;;;0.40;0.40;;;28.10;99.90;29.40;100709.00;;;;6248926;22;20365;-65
2023/07/29 08:49:24;;;;;;;0.10;0.10;;;27.10;99.90;28.80;100714.00;;;;6281693;22;20197;-65
2023/07/29 08:51:53;;;;;;;0.22;0.22;;;26.50;99.90;30.80;100689.00;;;;6307985;22;20148;-65
2023/07/29 08:54:19;;;;;;;0.10;0.10;;;26.80;99.90;29.90;100697.00;;;;6308487;22;20136;-65
2023/07/29 08:56:46;;;;;;;0.10;0.10;;;26.30;99.90;31.50;100686.00;;;;6280658;22;20141;-65
2023/07/29 08:59:12;;;;;;;0.80;0.63;;;27.10;99.90;29.00;100722.00;;;;6308017;22;20140;-65
2023/07/29 09:02:08;;;;;;;0.30;0.30;;;26.30;99.90;26.10;100646.00;;;;6280685;22;20192;-65
2023/07/29 09:04:36;;;;;;;0.20;0.20;;;24.20;99.90;26.40;100603.00;;;;6308334;22;20153;-65
2023/07/29 09:07:06;;;;;;;0.10;0.10;;;23.80;99.90;26.70;100564.00;;;;6307830;22;20219;-65
2023/07/29 09:09:55;;;;;;;0.10;0.10;;;23.90;99.90;27.70;100604.00;;;;6280949;22;20145;-67
2023/07/29 09:12:22;;;;;;;0.50;0.50;;;24.10;99.90;25.80;100575.00;;;;6280998;22;20607;-66
2023/07/29 09:14:54;;;;;;;0.50;0.50;;;23.70;99.90;28.10;100596.00;;;;6281253;22;20140;-67
2023/07/29 09:17:23;;;;;;;0.70;0.70;;;24.40;99.90;26.60;100576.00;;;;6254486;22;20501;-66
2023/07/29 09:19:56;;;;;;;0.10;0.10;;;24.30;99.90;26.90;100583.00;;;;6308232;22;20152;-65
2023/07/29 09:22:26;;;;;;;0.10;0.10;;;24.00;99.90;26.30;100583.00;;;;6280679;22;20251;-65
2023/07/29 09:24:57;;;;;;;0.10;0.10;;;23.80;99.90;27.10;100567.00;;;;6255239;22;20179;-66
2023/07/29 09:27:28;;;;;;;3.10;1.10;;;23.80;99.90;25.90;100579.00;;;;6280985;22;20202;-64
2023/07/29 09:29:56;;;;;;;0.10;0.10;;;23.50;99.90;26.90;100572.00;;;;6279988;22;20524;-65
2023/07/29 09:32:24;;;;;;;0.35;0.35;;;23.40;99.90;25.80;100577.00;;;;6306375;22;20148;-67
2023/07/29 09:34:51;;;;;;;1.25;0.88;;;23.50;99.90;24.80;100559.00;;;;6280413;22;20144;-67
2023/07/29 09:37:31;;;;;;;0.10;0.10;;;22.90;99.90;26.40;100563.00;;;;6253976;22;20168;-65
2023/07/29 09:39:59;;;;;;;0.10;0.10;;;23.00;99.90;25.50;100560.00;;;;6281090;22;20240;-65
2023/07/29 09:42:36;;;;;;;0.10;0.10;;;23.00;99.90;25.20;100526.00;;;;6254861;22;20179;-64
2023/07/29 09:45:05;;;;;;;0.20;0.20;;;22.90;99.90;24.10;100550.00;;;;6307043;22;20136;-65
2023/07/29 09:47:31;;;;;;;0.10;0.10;;;22.70;99.90;25.10;100551.00;;;;6280494;22;20509;-63
2023/07/29 09:50:02;;;;;;;0.10;0.10;;;22.50;99.90;26.40;100573.00;;;;6306462;22;20219;-64
2023/07/29 09:52:31;;;;;;;0.10;0.10;;;23.10;99.90;26.70;100561.00;;;;6307061;22;20581;-64
2023/07/29 09:54:57;;;;;;;0.10;0.10;;;23.60;99.90;25.60;100541.00;;;;6307573;22;20216;-66
2023/07/29 09:57:32;;;;;;;0.20;0.20;;;23.40;99.90;24.80;100537.00;;;;6229293;22;20475;-66
2023/07/29 09:59:58;;;;;;;0.10;0.10;;;23.10;99.90;25.20;100545.00;;;;6280248;22;20238;-66
2023/07/29 10:02:30;;;;;;;0.10;0.10;;;23.00;99.90;27.20;100562.00;;;;6279121;22;20196;-68
2023/07/29 10:04:57;;;;;;;0.20;0.20;;;23.80;99.90;27.40;100570.00;;;;6307406;22;20178;-66
2023/07/29 10:07:24;;;;;;;0.10;0.10;;;24.50;99.90;26.60;100550.00;;;;6280409;22;20160;-67
2023/07/29 10:09:53;;;;;;;1.65;1.55;;;24.20;99.90;25.90;100535.00;;;;6280423;22;20143;-66
2023/07/29 10:12:19;;;;;;;0.10;0.10;;;23.80;99.90;27.50;100550.00;;;;6280604;22;20448;-66
2023/07/29 10:14:47;;;;;;;0.10;0.10;;;24.20;99.90;26.80;100536.00;;;;6307423;22;20144;-66
2023/07/29 10:17:16;;;;;;;0.10;0.10;;;24.20;99.90;25.50;100526.00;;;;6279274;22;20575;-65
2023/07/29 10:19:44;;;;;;;0.32;0.32;;;23.40;99.90;26.00;100547.00;;;;6280062;22;20479;-65
2023/07/29 10:33:26;;;;;;;0.30;0.30;;;21.90;99.90;23.40;100499.00;;;;5131369;27;20607;-65
2023/07/29 10:35:55;;;;;;;0.32;0.32;;;22.00;99.90;23.90;100512.00;;;;5110818;28;20279;-65
2023/07/29 10:38:24;;;;;;;1.33;0.30;;;22.20;99.90;23.40;100511.00;;;;5109813;28;20191;-65
2023/07/29 10:41:00;;;;;;;0.40;0.40;;;22.00;99.90;25.20;100504.00;;;;5110655;28;20225;-65
2023/07/29 10:43:39;;;;;;;0.10;0.10;;;22.40;99.90;24.20;100487.00;;;;5108562;28;20184;-65
2023/07/29 10:46:20;;;;;;;0.10;0.10;;;22.50;99.90;25.00;100514.00;;;;5101054;28;20203;-65
2023/07/29 10:48:55;;;;;;;0.50;0.50;;;22.60;99.90;24.70;100520.00;;;;5108910;28;20177;-65
2023/07/29 10:51:29;;;;;;;2.65;2.17;;;22.60;99.90;25.40;100533.00;;;;5108539;28;20255;-65
2023/07/29 10:53:58;;;;;;;0.10;0.10;;;22.70;99.90;25.90;100519.00;;;;5110674;28;20266;-65
2023/07/29 10:56:28;;;;;;;2.47;1.02;;;23.00;99.90;25.50;100512.00;;;;5108372;28;20178;-65
2023/07/29 10:59:10;;;;;;;0.35;0.35;;;22.80;99.90;23.00;100534.00;;;;5102338;28;20237;-65
2023/07/29 11:01:40;;;;;;;0.90;0.90;;;21.80;99.90;22.40;100542.00;;;;5100508;28;20185;-66
2023/07/29 11:04:24;;;;;;;0.98;0.77;;;21.00;99.90;19.90;100580.00;;;;5109129;28;20184;-67
2023/07/29 11:07:07;;;;;;;0.68;0.68;;;19.30;99.90;20.30;100607.00;;;;5110221;28;20218;-68
2023/07/29 11:09:51;;;;;;;0.52;0.52;;;18.70;99.90;19.80;100600.00;;;;5120478;28;20188;-67
2023/07/29 11:12:37;;;;;;;1.23;1.13;;;18.50;99.90;20.40;100618.00;;;;5109428;28;20208;-67
2023/07/29 11:15:12;;;;;;;1.07;0.97;;;18.60;99.90;20.50;100607.00;;;;5109854;28;20179;-67
2023/07/29 11:17:51;;;;;;;5.27;1.77;;;18.60;99.90;20.50;100587.00;;;;5108596;28;20234;-67
2023/07/29 11:20:24;;;;;;;0.68;0.68;;;18.60;99.90;20.50;100604.00;;;;5110160;28;20261;-67
2023/07/29 11:22:52;;;;;;;1.48;0.80;;;18.70;99.90;20.20;100586.00;;;;5109888;28;20274;-67
2023/07/29 11:25:19;;;;;;;0.40;0.40;;;18.60;99.90;20.30;100604.00;;;;5109022;28;20713;-67
2023/07/29 11:27:45;;;;;;;1.85;1.70;;;18.70;99.90;20.30;100613.00;;;;5109338;28;20653;-66
2023/07/29 11:30:14;;;;;;;1.90;1.70;;;18.70;99.90;20.90;100608.00;;;;5108288;28;20208;-67
2023/07/29 11:32:42;;;;;;;0.30;0.30;;;19.00;99.90;21.70;100602.00;;;;5091314;28;20220;-67
2023/07/29 11:35:14;;;;;;;1.73;1.63;;;19.50;99.90;22.60;100589.00;;;;5107766;28;20275;-67
2023/07/29 11:37:44;;;;;;;1.00;1.00;;;20.40;99.90;23.20;100568.00;;;;5107382;28;20208;-67
2023/07/29 11:40:18;;;;;;;0.93;0.80;;;20.90;99.90;22.10;100587.00;;;;5096977;28;20181;-67
2023/07/29 11:42:46;;;;;;;0.50;0.50;;;20.70;99.90;21.80;100571.00;;;;5107319;28;20657;-67
2023/07/29 11:45:14;;;;;;;0.60;0.60;;;20.40;99.90;21.90;100587.00;;;;5075118;28;20181;-67
2023/07/29 11:47:40;;;;;;;0.77;0.77;;;20.20;99.90;21.80;100586.00;;;;5095016;28;20188;-67
2023/07/29 11:50:15;;;;;;;1.08;1.00;;;20.10;99.90;22.80;100581.00;;;;5096013;28;20539;-67
2023/07/29 11:52:45;;;;;;;0.40;0.40;;;20.70;99.90;22.20;100576.00;;;;5095740;28;20216;-67
2023/07/29 11:55:14;;;;;;;0.52;0.52;;;20.80;99.90;23.00;100564.00;;;;5094369;28;20188;-67
2023/07/29 11:57:41;;;;;;;1.20;0.80;;;21.00;99.90;23.10;100560.00;;;;5095634;28;20635;-67
2023/07/29 12:00:10;;;;;;;1.45;0.60;;;21.30;99.90;23.00;100551.00;;;;5077330;28;20767;-67
2023/07/29 12:02:44;;;;;;;0.73;0.60;;;21.50;99.90;23.20;100543.00;;;;5094341;28;20210;-67
2023/07/29 12:05:11;;;;;;;0.55;0.50;;;21.50;99.90;24.10;100533.00;;;;5093707;28;20215;-68
2023/07/29 12:07:43;;;;;;;0.30;0.30;;;22.00;99.90;23.30;100537.00;;;;5094285;28;20184;-67
2023/07/29 12:10:10;;;;;;;1.02;0.70;;;21.80;99.90;22.20;100527.00;;;;5095310;28;20238;-66
2023/07/29 12:12:50;;;;;;;0.30;0.30;;;21.30;99.90;23.50;100527.00;;;;5089636;28;20232;-67
2023/07/29 12:15:29;;;;;;;0.35;0.35;;;21.40;99.90;23.40;100521.00;;;;5092530;28;20188;-66
2023/07/29 12:17:57;;;;;;;0.20;0.20;;;21.90;99.90;24.50;100512.00;;;;5091830;28;20270;-67
2023/07/29 12:20:30;;;;;;;1.30;0.60;;;22.30;99.90;24.20;100484.00;;;;5092160;28;20184;-66
2023/07/29 12:22:58;;;;;;;0.90;0.90;;;22.70;99.90;24.10;100498.00;;;;5092958;28;20184;-67
2023/07/29 12:25:26;;;;;;;0.50;0.50;;;22.70;99.90;24.30;100497.00;;;;5092395;28;20195;-66
2023/07/29 12:27:51;;;;;;;0.45;0.45;;;22.60;99.90;23.70;100499.00;;;;5093859;28;20254;-67
2023/07/29 12:30:31;;;;;;;0.30;0.30;;;22.30;99.90;23.20;100475.00;;;;5093346;28;20226;-67
2023/07/29 12:33:07;;;;;;;0.20;0.20;;;22.20;99.90;24.60;100509.00;;;;5093424;28;20216;-67
2023/07/29 12:35:42;;;;;;;3.08;0.50;;;22.50;99.90;23.30;100491.00;;;;5109561;28;20184;-67
2023/07/29 12:38:10;;;;;;;0.20;0.20;;;22.10;99.90;24.70;100488.00;;;;5092478;28;20253;-66
2023/07/29 12:40:42;;;;;;;0.75;0.75;;;22.40;99.90;24.40;100488.00;;;;5109030;28;20265;-66
2023/07/29 12:43:10;;;;;;;0.43;0.43;;;22.50;99.90;24.40;100497.00;;;;5092994;28;20181;-66
2023/07/29 12:45:39;;;;;;;0.40;0.40;;;22.70;99.90;24.00;100496.00;;;;5093589;28;20255;-67
2023/07/29 12:48:05;;;;;;;0.43;0.35;;;22.50;99.90;25.00;100498.00;;;;5092274;28;20189;-66
2023/07/29 12:50:32;;;;;;;1.17;0.38;;;22.90;99.90;24.50;100497.00;;;;5093677;28;20546;-65
2023/07/29 12:53:00;;;;;;;0.15;0.15;;;22.80;99.90;24.70;100494.00;;;;5093157;28;20311;-66
2023/07/29 12:55:29;;;;;;;4.18;0.90;;;22.70;99.90;24.90;100471.00;;;;5091027;28;20545;-65
2023/07/29 12:58:00;;;;;;;0.15;0.15;;;23.00;99.90;25.40;100508.00;;;;5093491;28;20177;-66
2023/07/29 13:00:32;;;;;;;0.47;0.47;;;23.20;99.90;25.40;100486.00;;;;5092254;28;20607;-66
2023/07/29 13:02:58;;;;;;;0.22;0.22;;;23.40;99.90;25.00;100512.00;;;;5091744;28;20654;-66
2023/07/29 13:05:24;;;;;;;1.95;0.50;;;23.50;99.90;25.00;100525.00;;;;5092326;28;20188;-65
2023/07/29 13:07:49;;;;;;;1.25;1.10;;;23.40;99.90;25.40;100516.00;;;;5092705;28;20180;-66
2023/07/29 13:10:16;;;;;;;0.10;0.10;;;23.40;99.90;24.90;100505.00;;;;5092698;28;20199;-66
2023/07/29 13:12:43;;;;;;;1.33;1.33;;;23.60;99.90;26.20;100520.00;;;;5093199;28;20289;-66
2023/07/29 13:15:10;;;;;;;0.63;0.50;;;23.80;99.90;25.10;100500.00;;;;5092207;28;20180;-66
2023/07/29 13:17:37;;;;;;;0.13;0.13;;;23.70;99.90;25.30;100509.00;;;;5092768;28;20173;-67
2023/07/29 13:20:29;;;;;;;0.52;0.52;;;23.40;99.90;24.50;100503.00;;;;5108161;28;20528;-66
2023/07/29 13:23:21;;;;;;;0.30;0.30;;;23.10;99.90;24.80;100503.00;;;;5075040;28;20532;-67
2023/07/29 13:26:14;;;;;;;2.25;0.47;;;23.10;99.90;24.80;100497.00;;;;5079498;28;20184;-67
2023/07/29 13:29:00;;;;;;;0.50;0.50;;;23.30;99.90;25.00;100487.00;;;;5092039;28;20212;-67
2023/07/29 13:31:31;;;;;;;0.30;0.30;;;23.20;99.90;26.10;100506.00;;;;5086337;28;20212;-67
2023/07/29 13:34:17;;;;;;;0.35;0.35;;;23.50;99.90;25.50;100510.00;;;;5092804;28;20189;-67
2023/07/29 13:37:05;;;;;;;0.50;0.50;;;23.60;99.90;25.30;100502.00;;;;5089850;28;20275;-67
2023/07/29 13:39:56;;;;;;;1.25;0.38;;;23.20;99.90;24.70;100506.00;;;;5092705;28;20211;-67
2023/07/29 13:42:46;;;;;;;0.17;0.17;;;23.10;99.90;24.80;100500.00;;;;5093278;28;20673;-67
2023/07/29 13:45:37;;;;;;;0.10;0.10;;;23.10;99.90;25.70;100517.00;;;;5099051;28;20182;-67
2023/07/29 13:48:35;;;;;;;0.55;0.45;;;23.20;99.90;26.00;100516.00;;;;5075383;28;20181;-67
2023/07/29 13:51:40;;;;;;;0.10;0.10;;;23.60;99.90;27.00;100535.00;;;;5092570;28;20195;-67
2023/07/29 13:54:40;;;;;;;0.10;0.10;;;24.10;99.90;26.50;100491.00;;;;5082625;28;20201;-67
2023/07/29 13:57:06;;;;;;;0.10;0.10;;;24.50;99.90;26.40;100524.00;;;;5093758;28;20603;-67
2023/07/29 13:59:33;;;;;;;0.45;0.45;;;24.20;99.90;26.50;100522.00;;;;5090126;28;20268;-70
2023/07/29 14:01:58;;;;;;;0.10;0.10;;;24.20;99.90;26.40;100531.00;;;;5092132;28;20230;-67
2023/07/29 14:04:24;;;;;;;0.10;0.10;;;24.00;99.90;26.70;100532.00;;;;5091804;28;20537;-66
2023/07/29 14:06:50;;;;;;;0.10;0.10;;;24.00;99.90;26.40;100540.00;;;;5091517;28;20184;-66
2023/07/29 14:09:19;;;;;;;0.40;0.40;;;24.00;99.90;24.60;100500.00;;;;5093307;28;20180;-65
2023/07/29 14:11:50;;;;;;;0.25;0.25;;;23.30;99.90;24.90;100531.00;;;;5092482;28;20693;-64
2023/07/29 14:14:19;;;;;;;0.20;0.20;;;22.90;99.90;24.00;100536.00;;;;5087232;28;20208;-65
2023/07/29 14:16:45;;;;;;;0.40;0.40;;;22.60;99.90;23.00;100538.00;;;;5089132;28;20207;-66
2023/07/29 14:19:11;;;;;;;0.45;0.45;;;22.10;99.90;23.20;100550.00;;;;5093795;28;20524;-67
2023/07/29 14:21:40;;;;;;;0.52;0.50;;;21.60;99.90;22.90;100544.00;;;;5092596;28;20280;-68
2023/07/29 14:24:15;;;;;;;0.35;0.35;;;21.40;99.90;22.60;100549.00;;;;5092440;28;20219;-69
2023/07/29 14:26:41;;;;;;;0.43;0.43;;;21.20;99.90;22.60;100562.00;;;;5093169;28;20230;-68
2023/07/29 14:29:12;;;;;;;0.90;0.68;;;21.10;99.90;23.30;100563.00;;;;5091488;28;20549;-67
2023/07/29 14:31:44;;;;;;;0.60;0.50;;;21.30;99.90;22.50;100560.00;;;;5092448;28;20220;-68
2023/07/29 14:34:12;;;;;;;0.35;0.35;;;21.20;99.90;22.60;100561.00;;;;5085203;28;20189;-68
2023/07/29 14:36:43;;;;;;;0.75;0.75;;;21.10;99.90;22.70;100516.00;;;;5067259;28;20220;-68
2023/07/29 14:39:11;;;;;;;0.90;0.85;;;21.30;99.90;23.90;100552.00;;;;5091166;28;20187;-68
2023/07/29 14:41:40;;;;;;;0.75;0.45;;;21.70;99.90;24.20;100535.00;;;;5091221;28;20189;-68
2023/07/29 14:44:09;;;;;;;0.70;0.70;;;22.10;99.90;22.60;100542.00;;;;5091132;28;20180;-68
2023/07/29 14:46:43;;;;;;;1.02;0.98;;;21.70;99.90;23.30;100529.00;;;;5073752;28;20575;-67
2023/07/29 14:49:13;;;;;;;0.50;0.50;;;21.70;99.90;24.10;100532.00;;;;5091613;28;20185;-67
2023/07/29 14:51:53;;;;;;;0.52;0.52;;;22.00;99.90;22.80;100524.00;;;;5089897;28;20235;-67
2023/07/29 14:54:22;;;;;;;0.10;0.10;;;21.80;99.90;23.90;100520.00;;;;5089626;28;20535;-67
2023/07/29 14:56:48;;;;;;;0.45;0.45;;;21.80;99.90;24.20;100528.00;;;;5091463;28;20192;-67
2023/07/29 14:59:19;;;;;;;0.75;0.75;;;22.20;99.90;23.40;100524.00;;;;5089529;28;20192;-67
2023/07/29 15:01:45;;;;;;;3.78;0.73;;;22.10;99.90;23.10;100514.00;;;;5073560;28;20228;-67
2023/07/29 15:04:19;;;;;;;0.85;0.73;;;21.90;99.90;23.20;100513.00;;;;5091518;28;20231;-67
2023/07/29 15:06:47;;;;;;;0.40;0.40;;;21.80;99.90;23.50;100521.00;;;;5091439;28;20657;-67
2023/07/29 15:09:15;;;;;;;0.50;0.50;;;21.90;99.90;23.40;100526.00;;;;5091011;28;20185;-67
2023/07/29 15:11:46;;;;;;;0.20;0.20;;;22.10;99.90;23.30;100519.00;;;;5107183;28;20605;-69
2023/07/29 15:14:16;;;;;;;0.68;0.68;;;21.90;99.90;24.30;100523.00;;;;5090798;28;20176;-67
2023/07/29 15:16:42;;;;;;;0.30;0.30;;;22.30;99.90;23.60;100518.00;;;;5089751;28;20568;-68
2023/07/29 15:19:13;;;;;;;0.75;0.52;;;22.30;99.90;23.20;100520.00;;;;5092683;28;20181;-68
2023/07/29 15:21:40;;;;;;;0.40;0.40;;;22.00;99.90;23.60;100518.00;;;;5093460;28;20586;-68
2023/07/29 15:24:11;;;;;;;0.10;0.10;;;22.00;99.90;24.00;100510.00;;;;5094145;28;20193;-68
2023/07/29 15:26:42;;;;;;;0.98;0.60;;;22.30;99.90;24.20;100522.00;;;;5093755;28;20192;-68
2023/07/29 15:29:11;;;;;;;0.20;0.20;;;22.50;99.90;24.60;100503.00;;;;5093579;28;20169;-68
2023/07/29 15:31:41;;;;;;;0.30;0.30;;;22.40;99.90;24.10;100516.00;;;;5094484;28;20759;-68
2023/07/29 15:34:15;;;;;;;0.30;0.30;;;22.50;99.90;23.60;100512.00;;;;5093863;28;20920;-68
2023/07/29 15:36:44;;;;;;;0.82;0.60;;;22.50;99.90;23.60;100497.00;;;;5094693;28;20184;-68
2023/07/29 15:39:15;;;;;;;0.10;0.10;;;22.30;99.90;24.70;100507.00;;;;5093736;28;20177;-67
2023/07/29 15:41:46;;;;;;;0.30;0.30;;;22.50;99.90;24.10;100524.00;;;;5093251;28;20176;-67
2023/07/29 15:44:15;;;;;;;0.35;0.32;;;22.50;99.90;24.00;100522.00;;;;5093988;28;20191;-67
2023/07/29 15:46:51;;;;;;;0.20;0.20;;;22.40;99.90;24.70;100529.00;;;;5092677;28;20176;-68
2023/07/29 15:49:17;;;;;;;0.30;0.30;;;22.70;99.90;24.00;100520.00;;;;5092270;28;20185;-67
2023/07/29 15:51:46;;;;;;;0.20;0.20;;;22.60;99.90;24.10;100521.00;;;;5092363;28;20208;-67
2023/07/29 15:54:17;;;;;;;0.70;0.60;;;22.50;99.90;24.00;100522.00;;;;5092260;28;20195;-67
2023/07/29 15:56:48;;;;;;;0.43;0.40;;;22.50;99.90;23.90;100532.00;;;;5092617;28;20202;-67
2023/07/29 15:59:17;;;;;;;0.68;0.60;;;22.60;99.90;24.30;100538.00;;;;5093604;28;20647;-67
2023/07/29 16:01:49;;;;;;;0.85;0.85;;;22.70;99.90;24.60;100538.00;;;;5093102;28;20226;-67
2023/07/29 16:04:15;;;;;;;0.93;0.75;;;22.80;99.90;25.40;100540.00;;;;5093683;28;20282;-67
2023/07/29 16:06:44;;;;;;;0.20;0.20;;;23.10;99.90;25.20;100542.00;;;;5091035;28;20653;-67
2023/07/29 16:09:10;;;;;;;0.30;0.30;;;23.20;99.90;25.00;100540.00;;;;5092664;28;20195;-67
2023/07/29 16:11:44;;;;;;;0.25;0.25;;;23.30;99.90;25.60;100544.00;;;;5093465;28;20208;-67
2023/07/29 16:14:15;;;;;;;2.17;1.15;;;23.50;99.90;24.80;100540.00;;;;5092499;28;20195;-67
2023/07/29 16:16:47;;;;;;;0.38;0.20;;;23.50;99.90;25.10;100535.00;;;;5092720;28;20195;-67
2023/07/29 16:19:25;;;;;;;0.32;0.32;;;23.40;99.90;25.00;100535.00;;;;5092568;28;20733;-67
2023/07/29 16:21:56;;;;;;;0.40;0.40;;;23.50;99.90;25.30;100538.00;;;;5091859;28;20693;-67
2023/07/29 16:24:27;;;;;;;0.32;0.30;;;23.50;99.90;24.80;100524.00;;;;5091225;28;20199;-67
2023/07/29 16:27:10;;;;;;;3.40;0.70;;;23.20;99.90;24.90;100537.00;;;;5091998;28;20193;-67
2023/07/29 16:29:57;;;;;;;0.30;0.30;;;23.10;99.90;24.60;100535.00;;;;5091058;28;20242;-67
2023/07/29 16:32:43;;;;;;;0.55;0.40;;;22.90;99.90;25.20;100565.00;;;;5074194;28;20222;-67
2023/07/29 16:35:18;;;;;;;1.10;0.93;;;23.10;99.90;24.80;100589.00;;;;5090492;28;20207;-67
2023/07/29 16:37:46;;;;;;;0.75;0.70;;;23.00;99.90;25.90;100589.00;;;;5091573;28;20229;-67
2023/07/29 16:40:35;;;;;;;1.60;0.57;;;23.20;99.90;24.90;100587.00;;;;5093177;28;20176;-67
2023/07/29 16:43:15;;;;;;;0.80;0.60;;;23.20;99.90;24.70;100604.00;;;;5091734;28;20310;-67
2023/07/29 16:46:04;;;;;;;0.28;0.28;;;22.90;99.90;24.80;100606.00;;;;5092647;28;20189;-67
2023/07/29 16:48:41;;;;;;;0.10;0.10;;;22.90;99.90;25.50;100622.00;;;;5108325;28;20203;-67
2023/07/29 16:51:12;;;;;;;1.23;0.85;;;23.10;99.90;24.40;100634.00;;;;5091896;28;20687;-67
2023/07/29 16:53:47;;;;;;;1.30;0.85;;;22.90;99.90;24.70;100625.00;;;;5090243;28;20188;-67
2023/07/29 16:56:22;;;;;;;0.10;0.10;;;22.80;99.90;25.80;100631.00;;;;5091406;28;20179;-67
2023/07/29 16:58:54;;;;;;;0.80;0.80;;;22.90;99.90;24.80;100650.00;;;;5107841;28;20204;-67
2023/07/29 17:01:28;;;;;;;1.98;0.88;;;22.80;99.90;25.40;100618.00;;;;5090753;28;20192;-67
2023/07/29 17:04:20;;;;;;;0.50;0.30;;;22.90;99.90;24.80;100669.00;;;;5091839;28;20219;-67
2023/07/29 17:07:09;;;;;;;2.40;1.20;;;22.70;99.90;24.40;100684.00;;;;5093062;28;20568;-67
2023/07/29 17:09:40;;;;;;;0.88;0.85;;;22.50;99.90;24.50;100669.00;;;;5090682;28;20187;-67
2023/07/29 17:12:22;;;;;;;11.93;1.45;;;22.50;99.90;24.70;100694.00;;;;5092397;28;20240;-67
2023/07/29 17:15:11;;;;;;;0.40;0.40;;;22.40;99.90;24.60;100651.00;;;;5090282;28;20188;-67
2023/07/29 17:17:59;;;;;;;2.00;1.63;;;22.40;99.90;24.10;100679.00;;;;5076060;28;20197;-67
2023/07/29 17:20:36;;;;;;;2.88;0.73;;;22.30;99.90;24.20;100682.00;;;;5076538;28;21016;-67
2023/07/29 17:23:22;;;;;;;0.22;0.22;;;22.30;99.90;24.70;100693.00;;;;5090058;28;20197;-66
2023/07/29 17:25:48;;;;;;;0.22;0.22;;;22.30;99.90;24.70;100693.00;;;;5091447;28;20211;-66
2023/07/29 17:28:17;;;;;;;1.98;1.25;;;22.40;99.90;24.20;100688.00;;;;5107532;28;20641;-67
2023/07/29 17:30:43;;;;;;;0.68;0.68;;;22.20;99.90;24.20;100680.00;;;;5074123;28;20627;-67
2023/07/29 17:33:09;;;;;;;0.60;0.35;;;22.10;99.90;23.70;100688.00;;;;5091464;28;20218;-66
2023/07/29 17:35:45;;;;;;;0.38;0.38;;;22.00;99.90;24.80;100691.00;;;;5091720;28;20181;-67
2023/07/29 17:38:11;;;;;;;0.80;0.50;;;22.20;99.90;23.80;100704.00;;;;5075570;28;20181;-67
2023/07/29 17:40:48;;;;;;;0.85;0.40;;;22.10;99.90;24.00;100674.00;;;;5092288;28;20635;-66
2023/07/29 17:43:19;;;;;;;0.13;0.13;;;22.00;99.90;23.90;100696.00;;;;5092229;28;20232;-68
2023/07/29 17:45:53;;;;;;;2.55;0.90;;;22.00;99.90;24.10;100686.00;;;;5089397;28;20189;-66
2023/07/29 17:48:19;;;;;;;0.80;0.80;;;22.00;99.90;23.80;100691.00;;;;5088858;28;20604;-66
2023/07/29 17:50:46;;;;;;;1.10;1.05;;;22.00;99.90;24.50;100697.00;;;;5092630;28;20234;-67
2023/07/29 17:53:12;;;;;;;0.30;0.30;;;22.20;99.90;24.30;100689.00;;;;5092005;28;20694;-66
2023/07/29 17:55:47;;;;;;;0.47;0.32;;;22.10;99.90;23.60;100675.00;;;;5075816;28;20194;-66
2023/07/29 17:58:18;;;;;;;4.43;1.00;;;21.90;99.90;24.20;100664.00;;;;5092856;28;20180;-66
2023/07/29 18:00:48;;;;;;;0.90;0.70;;;21.90;99.90;24.60;100676.00;;;;5092666;28;20205;-67
2023/07/29 18:03:22;;;;;;;4.80;1.30;;;22.00;99.90;24.20;100686.00;;;;5080085;28;20188;-66
2023/07/29 18:05:47;;;;;;;0.68;0.55;;;22.00;99.90;24.30;100679.00;;;;5088511;28;20197;-66
2023/07/29 18:08:18;;;;;;;0.47;0.47;;;21.80;99.90;24.80;100698.00;;;;5091849;28;20180;-66
2023/07/29 18:10:50;;;;;;;0.28;0.28;;;21.90;99.90;25.30;100702.00;;;;5093164;28;20180;-66
2023/07/29 18:13:16;;;;;;;4.18;0.63;;;22.10;99.90;23.70;100715.00;;;;5092964;28;20594;-66
2023/07/29 18:15:52;;;;;;;0.10;0.10;;;21.80;99.90;24.80;100697.00;;;;5091523;28;20181;-66
2023/07/29 18:18:18;;;;;;;0.40;0.40;;;21.80;99.90;24.70;100704.00;;;;5073551;28;21449;-66
2023/07/29 18:20:54;;;;;;;0.98;0.50;;;21.70;99.90;23.80;100686.00;;;;5092543;28;20176;-67
2023/07/29 18:23:22;;;;;;;0.60;0.60;;;21.60;99.90;23.50;100700.00;;;;5091435;28;20245;-67
2023/07/29 18:25:56;;;;;;;0.30;0.30;;;21.40;99.90;23.40;100685.00;;;;5090859;28;20670;-66